sensor_id;sensor_type;location;lat;lon;timestamp;P1;durP1;ratioP1;P2;durP2;ratioP2
29162;SDS011;20331;53.144;8.208;2022-07-29T00:02:10;3.05;;;1.30;;
29162;SDS011;20331;53.144;8.208;2022-07-29T00:12:31;3.22;;;1.17;;
29162;SDS011;20331;53.144;8.208;2022-07-29T00:22:53;4.68;;;1.30;;
29162;SDS011;20331;53.144;8.208;2022-07-29T00:33:14;5.88;;;1.52;;
29162;SDS011;20331;53.144;8.208;2022-07-29T00:43:36;2.95;;;1.52;;
29162;SDS011;20331;53.144;8.208;2022-07-29T00:53:58;2.35;;;1.30;;
29162;SDS011;20331;53.144;8.208;2022-07-29T01:04:20;4.50;;;1.48;;
29162;SDS011;20331;53.144;8.208;2022-07-29T01:14:42;3.83;;;1.40;;
29162;SDS011;20331;53.144;8.208;2022-07-29T01:36:51;3.50;;;1.40;;
29162;SDS011;20331;53.144;8.208;2022-07-29T01:47:14;5.03;;;1.38;;
29162;SDS011;20331;53.144;8.208;2022-07-29T01:57:42;3.05;;;1.42;;
29162;SDS011;20331;53.144;8.208;2022-07-29T02:08:06;3.72;;;1.40;;
29162;SDS011;20331;53.144;8.208;2022-07-29T02:18:30;5.25;;;1.70;;
29162;SDS011;20331;53.144;8.208;2022-07-29T02:28:54;5.30;;;1.50;;
29162;SDS011;20331;53.144;8.208;2022-07-29T02:39:17;3.80;;;1.60;;
29162;SDS011;20331;53.144;8.208;2022-07-29T03:00:21;4.30;;;1.33;;
29162;SDS011;20331;53.144;8.208;2022-07-29T03:10:48;4.05;;;1.50;;
29162;SDS011;20331;53.144;8.208;2022-07-29T03:21:10;1.52;;;1.20;;
29162;SDS011;20331;53.144;8.208;2022-07-29T03:31:32;4.95;;;1.50;;
29162;SDS011;20331;53.144;8.208;2022-07-29T03:41:55;5.03;;;1.65;;
29162;SDS011;20331;53.144;8.208;2022-07-29T03:52:17;8.07;;;1.67;;
29162;SDS011;20331;53.144;8.208;2022-07-29T04:02:39;4.78;;;1.40;;
29162;SDS011;20331;53.144;8.208;2022-07-29T04:13:01;6.82;;;1.63;;
29162;SDS011;20331;53.144;8.208;2022-07-29T04:23:22;4.07;;;1.40;;
29162;SDS011;20331;53.144;8.208;2022-07-29T04:44:05;7.27;;;1.67;;
29162;SDS011;20331;53.144;8.208;2022-07-29T04:54:32;8.25;;;1.45;;
29162;SDS011;20331;53.144;8.208;2022-07-29T05:04:54;3.72;;;1.30;;
29162;SDS011;20331;53.144;8.208;2022-07-29T05:15:18;4.85;;;1.60;;
29162;SDS011;20331;53.144;8.208;2022-07-29T05:25:40;3.30;;;1.65;;
29162;SDS011;20331;53.144;8.208;2022-07-29T05:36:04;4.60;;;1.70;;
29162;SDS011;20331;53.144;8.208;2022-07-29T05:46:29;2.92;;;1.50;;
29162;SDS011;20331;53.144;8.208;2022-07-29T05:56:50;7.10;;;2.00;;
29162;SDS011;20331;53.144;8.208;2022-07-29T06:07:12;3.50;;;1.63;;
29162;SDS011;20331;53.144;8.208;2022-07-29T06:17:34;7.00;;;1.80;;
29162;SDS011;20331;53.144;8.208;2022-07-29T06:27:56;3.85;;;1.50;;
29162;SDS011;20331;53.144;8.208;2022-07-29T06:38:18;7.25;;;2.00;;
29162;SDS011;20331;53.144;8.208;2022-07-29T06:48:54;3.60;;;1.60;;
29162;SDS011;20331;53.144;8.208;2022-07-29T06:59:16;5.72;;;1.83;;
29162;SDS011;20331;53.144;8.208;2022-07-29T07:09:37;3.65;;;1.92;;
29162;SDS011;20331;53.144;8.208;2022-07-29T07:20:01;5.63;;;1.92;;
29162;SDS011;20331;53.144;8.208;2022-07-29T07:30:22;5.68;;;2.00;;
29162;SDS011;20331;53.144;8.208;2022-07-29T07:40:44;5.05;;;1.95;;
29162;SDS011;20331;53.144;8.208;2022-07-29T07:51:07;6.40;;;2.03;;
29162;SDS011;20331;53.144;8.208;2022-07-29T08:01:29;5.80;;;2.00;;
29162;SDS011;20331;53.144;8.208;2022-07-29T08:12:08;4.15;;;2.15;;
29162;SDS011;20331;53.144;8.208;2022-07-29T08:22:30;6.03;;;2.00;;
29162;SDS011;20331;53.144;8.208;2022-07-29T08:32:51;3.33;;;1.77;;
29162;SDS011;20331;53.144;8.208;2022-07-29T08:43:15;3.50;;;1.35;;
29162;SDS011;20331;53.144;8.208;2022-07-29T08:53:37;7.50;;;2.22;;
29162;SDS011;20331;53.144;8.208;2022-07-29T09:04:03;3.95;;;1.70;;
29162;SDS011;20331;53.144;8.208;2022-07-29T09:14:27;5.15;;;2.22;;
29162;SDS011;20331;53.144;8.208;2022-07-29T09:24:48;8.35;;;2.25;;
29162;SDS011;20331;53.144;8.208;2022-07-29T09:35:18;5.97;;;1.70;;
29162;SDS011;20331;53.144;8.208;2022-07-29T09:45:42;7.13;;;1.85;;
29162;SDS011;20331;53.144;8.208;2022-07-29T09:56:04;4.20;;;1.60;;
29162;SDS011;20331;53.144;8.208;2022-07-29T10:06:26;5.70;;;2.13;;
29162;SDS011;20331;53.144;8.208;2022-07-29T10:16:47;4.20;;;1.95;;
29162;SDS011;20331;53.144;8.208;2022-07-29T10:27:09;3.38;;;1.40;;
29162;SDS011;20331;53.144;8.208;2022-07-29T10:59:31;10.85;;;1.40;;
29162;SDS011;20331;53.144;8.208;2022-07-29T11:31:03;3.35;;;1.25;;
29162;SDS011;20331;53.144;8.208;2022-07-29T11:41:26;4.53;;;1.30;;
29162;SDS011;20331;53.144;8.208;2022-07-29T11:51:52;6.70;;;1.48;;
29162;SDS011;20331;53.144;8.208;2022-07-29T12:02:16;4.70;;;1.48;;
29162;SDS011;20331;53.144;8.208;2022-07-29T12:12:57;5.40;;;1.40;;
29162;SDS011;20331;53.144;8.208;2022-07-29T12:23:19;3.10;;;1.40;;
29162;SDS011;20331;53.144;8.208;2022-07-29T12:33:41;8.60;;;1.45;;
29162;SDS011;20331;53.144;8.208;2022-07-29T12:44:03;3.83;;;1.38;;
29162;SDS011;20331;53.144;8.208;2022-07-29T12:54:25;5.25;;;1.25;;
29162;SDS011;20331;53.144;8.208;2022-07-29T13:04:54;4.30;;;1.42;;
29162;SDS011;20331;53.144;8.208;2022-07-29T13:15:21;7.95;;;1.55;;
29162;SDS011;20331;53.144;8.208;2022-07-29T13:25:42;4.88;;;1.30;;
29162;SDS011;20331;53.144;8.208;2022-07-29T13:36:05;4.28;;;1.30;;
29162;SDS011;20331;53.144;8.208;2022-07-29T13:46:27;4.90;;;1.08;;
29162;SDS011;20331;53.144;8.208;2022-07-29T13:56:49;5.15;;;1.23;;
29162;SDS011;20331;53.144;8.208;2022-07-29T14:07:11;1.67;;;1.13;;
29162;SDS011;20331;53.144;8.208;2022-07-29T14:17:36;2.53;;;1.30;;
29162;SDS011;20331;53.144;8.208;2022-07-29T14:27:58;4.85;;;1.35;;
29162;SDS011;20331;53.144;8.208;2022-07-29T14:38:19;4.20;;;1.20;;
29162;SDS011;20331;53.144;8.208;2022-07-29T14:48:47;5.25;;;1.52;;
29162;SDS011;20331;53.144;8.208;2022-07-29T14:59:08;4.45;;;1.40;;
29162;SDS011;20331;53.144;8.208;2022-07-29T15:09:30;3.22;;;1.50;;
29162;SDS011;20331;53.144;8.208;2022-07-29T15:19:56;6.32;;;1.85;;
29162;SDS011;20331;53.144;8.208;2022-07-29T15:30:18;5.05;;;1.60;;
29162;SDS011;20331;53.144;8.208;2022-07-29T15:40:54;7.45;;;1.60;;
29162;SDS011;20331;53.144;8.208;2022-07-29T15:51:16;4.65;;;1.88;;
29162;SDS011;20331;53.144;8.208;2022-07-29T16:01:39;3.53;;;1.77;;
29162;SDS011;20331;53.144;8.208;2022-07-29T16:12:02;5.05;;;2.50;;
29162;SDS011;20331;53.144;8.208;2022-07-29T16:22:35;6.45;;;2.03;;
29162;SDS011;20331;53.144;8.208;2022-07-29T16:32:57;3.20;;;1.55;;
29162;SDS011;20331;53.144;8.208;2022-07-29T16:43:18;7.47;;;2.08;;
29162;SDS011;20331;53.144;8.208;2022-07-29T16:53:40;2.55;;;1.50;;
29162;SDS011;20331;53.144;8.208;2022-07-29T17:04:02;3.35;;;1.60;;
29162;SDS011;20331;53.144;8.208;2022-07-29T17:14:27;8.35;;;1.90;;
29162;SDS011;20331;53.144;8.208;2022-07-29T17:24:52;4.43;;;1.83;;
29162;SDS011;20331;53.144;8.208;2022-07-29T17:35:14;5.00;;;2.00;;
29162;SDS011;20331;53.144;8.208;2022-07-29T17:45:54;4.82;;;1.55;;
29162;SDS011;20331;53.144;8.208;2022-07-29T17:56:20;4.75;;;1.58;;
29162;SDS011;20331;53.144;8.208;2022-07-29T18:06:42;8.95;;;1.85;;
29162;SDS011;20331;53.144;8.208;2022-07-29T18:17:03;4.80;;;2.00;;
29162;SDS011;20331;53.144;8.208;2022-07-29T18:27:25;4.75;;;1.50;;
29162;SDS011;20331;53.144;8.208;2022-07-29T18:37:47;3.97;;;2.00;;
29162;SDS011;20331;53.144;8.208;2022-07-29T18:48:22;7.32;;;1.88;;
29162;SDS011;20331;53.144;8.208;2022-07-29T18:58:44;4.32;;;1.42;;
29162;SDS011;20331;53.144;8.208;2022-07-29T19:09:06;6.75;;;1.40;;
29162;SDS011;20331;53.144;8.208;2022-07-29T19:19:31;2.67;;;1.30;;
29162;SDS011;20331;53.144;8.208;2022-07-29T19:29:53;6.13;;;1.85;;
29162;SDS011;20331;53.144;8.208;2022-07-29T19:40:19;5.03;;;1.88;;
29162;SDS011;20331;53.144;8.208;2022-07-29T19:50:42;4.00;;;1.63;;
29162;SDS011;20331;53.144;8.208;2022-07-29T20:01:03;5.60;;;1.70;;
29162;SDS011;20331;53.144;8.208;2022-07-29T20:11:31;4.18;;;1.33;;
29162;SDS011;20331;53.144;8.208;2022-07-29T20:21:57;5.65;;;1.60;;
29162;SDS011;20331;53.144;8.208;2022-07-29T20:32:19;6.22;;;2.15;;
29162;SDS011;20331;53.144;8.208;2022-07-29T20:42:41;9.02;;;2.60;;
29162;SDS011;20331;53.144;8.208;2022-07-29T20:53:03;4.35;;;2.38;;
29162;SDS011;20331;53.144;8.208;2022-07-29T21:03:25;5.55;;;2.35;;
29162;SDS011;20331;53.144;8.208;2022-07-29T21:13:46;5.85;;;2.50;;
29162;SDS011;20331;53.144;8.208;2022-07-29T21:24:08;4.18;;;2.33;;
29162;SDS011;20331;53.144;8.208;2022-07-29T21:34:32;4.90;;;2.08;;
29162;SDS011;20331;53.144;8.208;2022-07-29T21:44:54;6.05;;;2.30;;
29162;SDS011;20331;53.144;8.208;2022-07-29T21:55:15;5.93;;;2.28;;
29162;SDS011;20331;53.144;8.208;2022-07-29T22:05:39;6.95;;;2.58;;
29162;SDS011;20331;53.144;8.208;2022-07-29T22:16:01;5.28;;;2.30;;
29162;SDS011;20331;53.144;8.208;2022-07-29T22:26:23;4.22;;;2.35;;
29162;SDS011;20331;53.144;8.208;2022-07-29T22:36:45;7.72;;;2.47;;
29162;SDS011;20331;53.144;8.208;2022-07-29T22:47:07;5.40;;;2.45;;
29162;SDS011;20331;53.144;8.208;2022-07-29T22:57:29;3.75;;;2.17;;
29162;SDS011;20331;53.144;8.208;2022-07-29T23:07:50;6.07;;;2.25;;
29162;SDS011;20331;53.144;8.208;2022-07-29T23:18:12;6.13;;;2.25;;
29162;SDS011;20331;53.144;8.208;2022-07-29T23:28:33;5.68;;;2.45;;
29162;SDS011;20331;53.144;8.208;2022-07-29T23:38:55;8.90;;;2.50;;
29162;SDS011;20331;53.144;8.208;2022-07-29T23:49:17;4.65;;;2.20;;
29162;SDS011;20331;53.144;8.208;2022-07-29T23:59:39;4.70;;;2.22;;
